Terminal Aerodrome Forecast
Issued by NWS

Home | Current Version | Previous Version | Text Only | Print | Product List | Glossary On
Versions: 1 2 3 4 5 6 7 8 9 10 11 12 13 14 15 16
980
FTUS41 KPBZ 050523
TAFFKL
TAF
KFKL 050523Z 0506/0606 15009KT 5SM BR OVC008
      TEMPO 0506/0507 4SM -RASN
     FM051500 26007KT P6SM OVC010
     FM052000 20007KT P6SM BKN035
      AMD NOT SKED=

USA.gov is the U.S. government's official web portal to all federal, state and local government web resources and services.